Time;durP1;ratioP1;P1;durP2;ratioP2;P2;SDS_P1;SDS_P2;PMS_P1;PMS_P2;Temp;Humidity;BMP_temperature;BMP_pressure;BME280_temperature;BME280_humidity;BME280_pressure;Samples;Min_cycle;Max_cycle;Signal;HPM_P1;HPM_P2
2022/06/28 00:00:18;;;;;;;15.82;3.00;;;;;;;;;;6175402;23;20017;-45
2022/06/28 00:02:44;;;;;;;5.28;2.30;;;;;;;;;;6174356;23;20533;-45
2022/06/28 00:05:11;;;;;;;14.43;2.92;;;;;;;;;;6175454;23;20017;-46
2022/06/28 00:07:39;;;;;;;10.10;2.40;;;;;;;;;;6163691;23;20455;-45
2022/06/28 00:10:06;;;;;;;8.85;3.13;;;;;;;;;;6170083;23;20021;-46
2022/06/28 00:12:33;;;;;;;9.43;2.60;;;;;;;;;;6170813;23;20021;-47
2022/06/28 00:17:44;;;;;;;12.50;2.53;;;;;;;;;;6175314;23;20017;-44
2022/06/28 00:20:11;;;;;;;9.05;2.80;;;;;;;;;;6168968;23;20051;-45
2022/06/28 00:22:39;;;;;;;10.90;2.40;;;;;;;;;;6173294;23;20013;-46
2022/06/28 00:25:06;;;;;;;16.10;3.33;;;;;;;;;;6172738;23;20067;-44
2022/06/28 00:27:33;;;;;;;6.93;1.88;;;;;;;;;;6178335;23;20017;-44
2022/06/28 00:30:00;;;;;;;15.20;2.53;;;;;;;;;;6178549;23;20412;-46
2022/06/28 00:32:28;;;;;;;8.60;2.22;;;;;;;;;;6163437;23;20025;-44
2022/06/28 00:34:54;;;;;;;7.38;1.90;;;;;;;;;;6176448;23;20073;-45
2022/06/28 00:37:21;;;;;;;8.68;2.63;;;;;;;;;;6161361;23;20031;-44
2022/06/28 00:39:48;;;;;;;16.38;3.05;;;;;;;;;;6177384;23;20017;-45
2022/06/28 00:42:15;;;;;;;12.93;2.92;;;;;;;;;;6163641;23;20020;-44
2022/06/28 00:44:42;;;;;;;10.30;3.03;;;;;;;;;;6174026;23;20400;-46
2022/06/28 00:47:09;;;;;;;11.15;2.95;;;;;;;;;;6174192;23;20020;-47
2022/06/28 00:49:39;;;;;;;16.42;2.92;;;;;;;;;;6167502;23;20012;-45
2022/06/28 00:52:05;;;;;;;6.53;2.70;;;;;;;;;;6180500;23;20025;-45
2022/06/28 00:54:32;;;;;;;9.32;2.42;;;;;;;;;;6166773;23;20027;-45
2022/06/28 00:57:00;;;;;;;9.48;2.50;;;;;;;;;;6175511;23;20021;-44
2022/06/28 00:59:27;;;;;;;7.05;2.22;;;;;;;;;;6169603;23;20020;-44
2022/06/28 01:01:53;;;;;;;10.65;2.55;;;;;;;;;;6180195;23;20079;-46
2022/06/28 01:04:20;;;;;;;12.98;2.85;;;;;;;;;;6170768;23;20013;-45
2022/06/28 01:06:46;;;;;;;9.73;3.47;;;;;;;;;;6175302;23;20347;-48
2022/06/28 01:09:13;;;;;;;10.30;3.50;;;;;;;;;;6160507;23;20041;-46
2022/06/28 01:11:40;;;;;;;9.77;2.50;;;;;;;;;;6175081;23;20021;-45
2022/06/28 01:14:08;;;;;;;13.98;2.95;;;;;;;;;;6171480;23;20100;-45
2022/06/28 01:16:35;;;;;;;7.43;2.42;;;;;;;;;;6171822;23;20447;-44
2022/06/28 01:19:02;;;;;;;8.93;2.90;;;;;;;;;;6165080;23;20476;-46
2022/06/28 01:21:30;;;;;;;10.63;2.60;;;;;;;;;;6173632;23;20024;-47
2022/06/28 01:23:58;;;;;;;8.68;1.98;;;;;;;;;;6145027;23;20627;-46
2022/06/28 01:26:25;;;;;;;9.52;3.22;;;;;;;;;;6171859;23;20562;-46
2022/06/28 01:28:52;;;;;;;10.23;2.72;;;;;;;;;;6168789;23;20021;-49
2022/06/28 01:31:19;;;;;;;15.38;2.92;;;;;;;;;;6172347;23;20017;-46
2022/06/28 01:33:46;;;;;;;11.80;3.33;;;;;;;;;;6166396;23;20083;-47
2022/06/28 01:36:13;;;;;;;15.00;4.05;;;;;;;;;;6176477;23;20025;-44
2022/06/28 01:38:40;;;;;;;12.90;3.05;;;;;;;;;;6167795;23;20672;-45
2022/06/28 01:41:08;;;;;;;10.10;2.25;;;;;;;;;;6174962;23;20017;-44
2022/06/28 01:43:36;;;;;;;14.10;2.70;;;;;;;;;;6174158;23;20021;-45
2022/06/28 01:46:05;;;;;;;22.55;3.50;;;;;;;;;;6168352;23;20017;-44
2022/06/28 01:48:32;;;;;;;11.23;2.63;;;;;;;;;;6176831;23;20036;-45
2022/06/28 01:50:59;;;;;;;10.65;4.00;;;;;;;;;;6170487;23;20017;-46
2022/06/28 01:53:25;;;;;;;11.60;2.85;;;;;;;;;;6163062;23;20095;-45
2022/06/28 01:55:52;;;;;;;11.73;2.42;;;;;;;;;;6177414;23;20100;-47
2022/06/28 01:58:20;;;;;;;9.52;2.65;;;;;;;;;;6163473;23;20017;-46
2022/06/28 02:00:46;;;;;;;12.38;2.38;;;;;;;;;;6170254;23;20017;-44
2022/06/28 02:03:13;;;;;;;14.60;3.13;;;;;;;;;;6181150;23;20037;-47
2022/06/28 02:05:39;;;;;;;10.05;2.50;;;;;;;;;;6168131;23;20017;-44
2022/06/28 02:08:06;;;;;;;11.55;2.70;;;;;;;;;;6176540;23;20013;-46
2022/06/28 02:10:33;;;;;;;9.50;2.72;;;;;;;;;;6164989;23;20080;-45
2022/06/28 02:12:59;;;;;;;9.88;2.42;;;;;;;;;;6170589;23;20021;-47
2022/06/28 02:15:27;;;;;;;10.93;2.85;;;;;;;;;;6176310;23;20024;-45
2022/06/28 02:17:57;;;;;;;10.77;2.88;;;;;;;;;;6169488;23;20451;-48
2022/06/28 02:20:24;;;;;;;12.73;2.83;;;;;;;;;;6174485;23;20013;-45
2022/06/28 02:22:50;;;;;;;13.65;2.92;;;;;;;;;;6171051;23;20017;-45
2022/06/28 02:25:17;;;;;;;10.43;3.40;;;;;;;;;;6169094;23;20044;-45
2022/06/28 02:27:44;;;;;;;14.18;3.10;;;;;;;;;;6174522;23;20036;-47
2022/06/28 02:30:11;;;;;;;12.20;2.78;;;;;;;;;;6166931;23;20016;-46
2022/06/28 02:32:39;;;;;;;8.48;2.85;;;;;;;;;;6171614;23;20027;-45
2022/06/28 02:40:34;;;;;;;13.57;2.58;;;;;;;;;;6165804;23;20013;-44
2022/06/28 02:43:01;;;;;;;16.10;3.70;;;;;;;;;;6175382;23;20068;-46
2022/06/28 02:45:28;;;;;;;15.98;3.05;;;;;;;;;;6169823;23;20017;-46
2022/06/28 02:47:56;;;;;;;10.57;3.40;;;;;;;;;;6175083;23;20013;-46
2022/06/28 02:50:23;;;;;;;17.08;3.42;;;;;;;;;;6165842;23;20017;-47
2022/06/28 02:52:49;;;;;;;12.60;2.88;;;;;;;;;;6176582;23;20052;-49
2022/06/28 02:55:16;;;;;;;19.17;3.63;;;;;;;;;;6170378;23;20024;-45
2022/06/28 02:57:43;;;;;;;12.52;3.15;;;;;;;;;;6175987;23;20021;-46
2022/06/28 03:00:10;;;;;;;16.98;4.50;;;;;;;;;;6142925;23;20040;-45
2022/06/28 03:02:37;;;;;;;11.23;2.83;;;;;;;;;;6172064;23;20021;-46
2022/06/28 03:05:06;;;;;;;14.85;4.15;;;;;;;;;;6171125;23;20013;-47
2022/06/28 03:07:32;;;;;;;13.02;2.85;;;;;;;;;;6165283;23;20044;-45
2022/06/28 03:09:59;;;;;;;13.73;2.97;;;;;;;;;;6177033;23;20048;-48
2022/06/28 03:12:25;;;;;;;18.45;2.95;;;;;;;;;;6159791;23;20456;-45
2022/06/28 03:14:52;;;;;;;14.05;3.67;;;;;;;;;;6169381;23;20092;-46
2022/06/28 03:17:18;;;;;;;9.77;2.25;;;;;;;;;;6167490;23;20017;-45
2022/06/28 03:19:45;;;;;;;13.70;3.20;;;;;;;;;;6171204;23;20040;-47
2022/06/28 03:22:13;;;;;;;10.52;3.28;;;;;;;;;;6171294;23;20084;-45
2022/06/28 03:24:39;;;;;;;15.77;3.88;;;;;;;;;;6165320;23;20027;-46
2022/06/28 03:27:06;;;;;;;17.88;3.85;;;;;;;;;;6176118;23;20013;-46
2022/06/28 03:29:32;;;;;;;14.32;4.03;;;;;;;;;;6171447;23;20016;-46
2022/06/28 03:31:58;;;;;;;14.88;3.42;;;;;;;;;;6166901;23;20025;-44
2022/06/28 03:34:25;;;;;;;15.75;2.97;;;;;;;;;;6176902;23;20021;-44
2022/06/28 03:36:51;;;;;;;11.00;3.45;;;;;;;;;;6167972;23;20017;-44
2022/06/28 03:39:19;;;;;;;11.45;2.95;;;;;;;;;;6172745;23;20017;-44
2022/06/28 03:41:46;;;;;;;15.50;2.90;;;;;;;;;;6167673;23;20020;-45
2022/06/28 03:44:12;;;;;;;23.05;3.35;;;;;;;;;;6172706;23;20013;-46
2022/06/28 03:46:39;;;;;;;12.23;2.80;;;;;;;;;;6143581;23;20522;-45
2022/06/28 03:49:05;;;;;;;12.27;2.88;;;;;;;;;;6170890;23;20048;-46
2022/06/28 03:51:32;;;;;;;9.43;3.20;;;;;;;;;;6167416;23;20448;-45
2022/06/28 03:53:58;;;;;;;17.50;3.75;;;;;;;;;;6135773;23;20013;-44
2022/06/28 03:56:27;;;;;;;16.23;2.75;;;;;;;;;;6165857;23;20053;-46
2022/06/28 03:58:53;;;;;;;8.65;2.58;;;;;;;;;;6173131;23;20045;-45
2022/06/28 04:01:20;;;;;;;14.02;3.17;;;;;;;;;;6175892;23;20044;-46
2022/06/28 04:03:46;;;;;;;11.98;3.45;;;;;;;;;;6164007;23;20447;-45
2022/06/28 04:06:13;;;;;;;5.90;2.28;;;;;;;;;;6180122;23;20024;-45
2022/06/28 04:08:39;;;;;;;13.68;3.20;;;;;;;;;;6172444;23;20017;-47
2022/06/28 04:11:15;;;;;;;11.00;2.75;;;;;;;;;;6168939;23;20013;-47
2022/06/28 04:13:43;;;;;;;14.63;3.70;;;;;;;;;;6172651;23;20021;-46
2022/06/28 04:16:10;;;;;;;11.75;3.08;;;;;;;;;;6179096;23;20052;-48
2022/06/28 04:18:36;;;;;;;8.90;2.72;;;;;;;;;;6170585;23;20013;-46
2022/06/28 04:21:03;;;;;;;10.68;3.13;;;;;;;;;;6177205;23;20044;-46
2022/06/28 04:23:30;;;;;;;8.73;3.17;;;;;;;;;;6165740;23;20013;-48
2022/06/28 04:25:57;;;;;;;17.52;3.08;;;;;;;;;;6170937;23;20044;-45
2022/06/28 04:28:24;;;;;;;12.82;3.67;;;;;;;;;;6171470;23;20025;-45
2022/06/28 04:30:52;;;;;;;5.40;2.53;;;;;;;;;;6169202;23;20017;-44
2022/06/28 04:33:18;;;;;;;14.77;3.85;;;;;;;;;;6166724;23;20021;-45
2022/06/28 04:35:45;;;;;;;8.95;3.20;;;;;;;;;;6169064;23;20044;-45
2022/06/28 04:38:12;;;;;;;19.15;3.38;;;;;;;;;;6169701;23;20025;-44
2022/06/28 04:40:38;;;;;;;15.05;3.42;;;;;;;;;;6169716;23;20013;-47
2022/06/28 04:43:04;;;;;;;11.00;2.58;;;;;;;;;;6173875;23;20017;-44
2022/06/28 04:45:31;;;;;;;9.63;3.03;;;;;;;;;;6169694;23;20017;-44
2022/06/28 04:47:59;;;;;;;9.68;3.17;;;;;;;;;;6166604;23;20091;-45
2022/06/28 04:50:25;;;;;;;17.25;4.07;;;;;;;;;;6167488;23;21189;-44
2022/06/28 04:52:52;;;;;;;7.97;3.22;;;;;;;;;;6170659;23;20021;-47
2022/06/28 04:55:19;;;;;;;16.33;3.58;;;;;;;;;;6169771;23;20044;-45
2022/06/28 04:57:45;;;;;;;15.13;3.47;;;;;;;;;;6167934;23;20017;-45
2022/06/28 05:00:12;;;;;;;9.82;4.13;;;;;;;;;;6138139;23;20024;-44
2022/06/28 05:02:39;;;;;;;18.35;3.47;;;;;;;;;;6172796;23;20028;-45
2022/06/28 05:05:08;;;;;;;15.18;4.30;;;;;;;;;;6175646;23;20012;-47
2022/06/28 05:07:35;;;;;;;8.27;3.07;;;;;;;;;;6159171;23;20013;-46
2022/06/28 05:10:02;;;;;;;12.05;2.67;;;;;;;;;;6175579;23;20044;-44
2022/06/28 05:12:28;;;;;;;15.32;3.53;;;;;;;;;;6164906;23;20049;-45
2022/06/28 05:14:55;;;;;;;10.07;3.75;;;;;;;;;;6176840;23;20156;-45
2022/06/28 05:17:21;;;;;;;23.88;4.40;;;;;;;;;;6163490;23;20368;-45
2022/06/28 05:19:48;;;;;;;16.95;4.03;;;;;;;;;;6168692;23;20017;-46
2022/06/28 05:22:16;;;;;;;17.80;3.58;;;;;;;;;;6173564;23;20021;-47
2022/06/28 05:24:43;;;;;;;13.55;4.05;;;;;;;;;;6164528;23;20543;-45
2022/06/28 05:27:09;;;;;;;13.63;3.10;;;;;;;;;;6175313;23;20017;-46
2022/06/28 05:29:36;;;;;;;10.55;3.55;;;;;;;;;;6168054;23;20024;-46
2022/06/28 05:32:03;;;;;;;20.38;4.30;;;;;;;;;;6170411;23;20307;-45
2022/06/28 05:34:29;;;;;;;12.65;3.13;;;;;;;;;;6161565;23;20475;-45
2022/06/28 05:36:56;;;;;;;11.70;3.33;;;;;;;;;;6172978;23;20021;-45
2022/06/28 05:39:24;;;;;;;15.70;3.92;;;;;;;;;;6172212;23;20017;-46
2022/06/28 05:41:50;;;;;;;18.98;3.70;;;;;;;;;;6131541;23;20040;-46
2022/06/28 05:44:17;;;;;;;10.68;3.28;;;;;;;;;;6175878;23;20028;-46
2022/06/28 05:46:44;;;;;;;15.20;4.05;;;;;;;;;;6162030;23;20017;-45
2022/06/28 05:49:11;;;;;;;15.82;3.67;;;;;;;;;;6145330;23;20040;-45
2022/06/28 05:51:38;;;;;;;14.32;3.90;;;;;;;;;;6131691;23;20652;-45
2022/06/28 05:54:04;;;;;;;10.45;3.72;;;;;;;;;;6177299;23;20021;-45
2022/06/28 05:56:35;;;;;;;14.20;4.25;;;;;;;;;;6161053;23;20016;-46
2022/06/28 05:59:01;;;;;;;14.40;4.00;;;;;;;;;;6175144;23;20033;-45
2022/06/28 06:01:28;;;;;;;13.65;3.70;;;;;;;;;;6171842;23;20013;-47
2022/06/28 06:03:54;;;;;;;11.07;4.03;;;;;;;;;;6168258;23;20104;-48
2022/06/28 06:06:22;;;;;;;19.70;5.43;;;;;;;;;;6177361;23;20575;-46
2022/06/28 06:08:48;;;;;;;19.90;3.60;;;;;;;;;;6165610;23;20096;-44
2022/06/28 06:11:16;;;;;;;11.00;3.72;;;;;;;;;;6171263;23;20052;-45
2022/06/28 06:13:44;;;;;;;19.98;3.85;;;;;;;;;;6145790;23;20029;-44
2022/06/28 06:16:10;;;;;;;10.43;3.35;;;;;;;;;;6168253;23;20079;-47
2022/06/28 06:18:37;;;;;;;10.65;3.08;;;;;;;;;;6168777;23;20013;-46
2022/06/28 06:21:03;;;;;;;19.08;3.92;;;;;;;;;;6173987;23;20409;-45
2022/06/28 06:23:30;;;;;;;20.05;3.55;;;;;;;;;;6169826;23;20016;-49
2022/06/28 06:25:56;;;;;;;9.30;2.95;;;;;;;;;;6152419;23;20013;-45
2022/06/28 06:28:23;;;;;;;16.17;3.83;;;;;;;;;;6134556;23;20013;-45
2022/06/28 06:30:53;;;;;;;13.27;3.65;;;;;;;;;;6144919;23;20017;-46
2022/06/28 06:33:19;;;;;;;9.82;3.22;;;;;;;;;;6134661;23;20021;-46
2022/06/28 06:35:46;;;;;;;14.50;3.28;;;;;;;;;;6137150;23;20043;-45
2022/06/28 06:38:14;;;;;;;14.05;3.10;;;;;;;;;;6135320;23;20434;-46
2022/06/28 06:40:41;;;;;;;11.48;2.47;;;;;;;;;;6136803;23;20036;-47
2022/06/28 06:43:08;;;;;;;19.85;3.17;;;;;;;;;;6141556;23;20025;-44
2022/06/28 06:45:34;;;;;;;11.88;3.20;;;;;;;;;;6130508;23;20021;-45
2022/06/28 06:48:02;;;;;;;16.77;3.33;;;;;;;;;;6142407;23;20013;-46
2022/06/28 06:50:32;;;;;;;13.05;2.90;;;;;;;;;;6139970;23;20017;-45
2022/06/28 06:53:02;;;;;;;13.93;3.10;;;;;;;;;;6136714;23;20052;-46
2022/06/28 06:55:28;;;;;;;;;;;;;;;;;;6108718;23;20268;-46
2022/06/28 06:57:55;;;;;;;9.75;3.08;;;;;;;;;;6112450;23;19924;-45
2022/06/28 07:00:22;;;;;;;11.60;3.05;;;;;;;;;;6143248;23;20013;-46
2022/06/28 07:02:49;;;;;;;20.42;3.67;;;;;;;;;;6117555;23;20023;-45
2022/06/28 07:05:18;;;;;;;7.35;2.30;;;;;;;;;;6140510;23;20429;-46
2022/06/28 07:07:45;;;;;;;10.57;2.65;;;;;;;;;;6121921;23;20384;-47
2022/06/28 07:10:11;;;;;;;11.90;2.58;;;;;;;;;;6122233;23;20013;-48
2022/06/28 07:12:38;;;;;;;17.80;3.72;;;;;;;;;;6142011;23;20800;-48
2022/06/28 07:15:05;;;;;;;13.65;4.75;;;;;;;;;;6146386;23;20029;-45
2022/06/28 07:17:32;;;;;;;9.25;2.75;;;;;;;;;;6148450;23;20017;-46
2022/06/28 07:19:58;;;;;;;9.95;2.83;;;;;;;;;;6167404;23;20020;-45
2022/06/28 07:22:28;;;;;;;11.32;2.63;;;;;;;;;;6180925;23;20079;-47
2022/06/28 07:24:56;;;;;;;16.52;2.88;;;;;;;;;;6169557;23;20013;-46
2022/06/28 07:27:22;;;;;;;7.45;2.47;;;;;;;;;;6158840;23;20073;-46
2022/06/28 07:29:49;;;;;;;10.15;3.10;;;;;;;;;;6167696;23;20071;-46
2022/06/28 07:32:16;;;;;;;9.73;3.67;;;;;;;;;;6137709;23;20066;-47
2022/06/28 07:34:43;;;;;;;11.50;2.30;;;;;;;;;;6175635;23;20052;-46
2022/06/28 07:37:09;;;;;;;11.27;2.70;;;;;;;;;;6167977;23;20043;-48
2022/06/28 07:39:37;;;;;;;13.32;2.17;;;;;;;;;;6179686;23;20075;-47
2022/06/28 07:42:04;;;;;;;9.80;2.00;;;;;;;;;;6168286;23;20017;-47
2022/06/28 07:44:31;;;;;;;10.05;2.58;;;;;;;;;;6174791;23;20017;-46
2022/06/28 07:46:57;;;;;;;14.88;2.67;;;;;;;;;;6165243;23;20060;-46
2022/06/28 07:52:33;;;;;;;9.27;2.22;;;;;;;;;;6168752;23;20017;-46
2022/06/28 07:54:56;;;;;;;13.50;3.25;;;;;;;;;;6162788;23;20591;-49
2022/06/28 07:57:22;;;;;;;9.13;3.05;;;;;;;;;;6173636;23;20044;-45
2022/06/28 07:59:49;;;;;;;7.55;2.03;;;;;;;;;;6168202;23;20103;-48
2022/06/28 08:02:15;;;;;;;10.60;2.08;;;;;;;;;;6172227;23;20099;-47
2022/06/28 08:04:42;;;;;;;8.88;2.05;;;;;;;;;;6174740;23;20024;-46
2022/06/28 08:07:08;;;;;;;9.18;2.35;;;;;;;;;;6134816;23;20017;-48
2022/06/28 08:09:35;;;;;;;10.10;2.35;;;;;;;;;;6170712;23;20044;-48
2022/06/28 08:12:03;;;;;;;9.45;3.13;;;;;;;;;;6168026;23;20013;-47
2022/06/28 08:14:30;;;;;;;10.25;2.45;;;;;;;;;;6170273;23;20093;-47
2022/06/28 08:16:56;;;;;;;12.95;2.35;;;;;;;;;;6165739;23;20084;-45
2022/06/28 08:19:23;;;;;;;5.25;1.70;;;;;;;;;;6170769;23;20040;-47
2022/06/28 08:21:50;;;;;;;9.20;2.47;;;;;;;;;;6135727;23;20447;-47
2022/06/28 08:24:17;;;;;;;7.55;1.85;;;;;;;;;;6174249;23;20013;-48
2022/06/28 08:26:44;;;;;;;10.77;3.25;;;;;;;;;;6167553;23;20023;-47
2022/06/28 08:29:12;;;;;;;10.10;1.90;;;;;;;;;;6177143;23;20072;-46
2022/06/28 08:31:38;;;;;;;14.38;2.80;;;;;;;;;;6164285;23;20024;-47
2022/06/28 08:34:05;;;;;;;7.00;2.50;;;;;;;;;;6173908;23;20025;-51
2022/06/28 08:36:32;;;;;;;7.75;1.90;;;;;;;;;;6145964;23;20013;-47
2022/06/28 08:38:59;;;;;;;8.27;1.88;;;;;;;;;;6175984;23;20339;-47
2022/06/28 08:41:27;;;;;;;4.85;1.40;;;;;;;;;;6149610;23;20025;-48
2022/06/28 08:43:53;;;;;;;11.75;2.45;;;;;;;;;;6175512;23;20071;-46
2022/06/28 08:46:24;;;;;;;12.25;2.60;;;;;;;;;;6174005;23;20309;-45
2022/06/28 08:48:52;;;;;;;13.00;2.15;;;;;;;;;;6175255;23;20488;-48
2022/06/28 08:51:18;;;;;;;8.05;2.35;;;;;;;;;;6168182;23;20013;-45
2022/06/28 08:53:47;;;;;;;7.65;2.72;;;;;;;;;;6169569;23;20025;-45
2022/06/28 08:56:14;;;;;;;12.30;2.88;;;;;;;;;;6131597;23;20064;-46
2022/06/28 08:58:42;;;;;;;9.70;2.17;;;;;;;;;;6167846;23;20013;-46
2022/06/28 09:01:09;;;;;;;6.38;1.88;;;;;;;;;;6173418;23;20350;-47
2022/06/28 09:03:37;;;;;;;4.90;1.60;;;;;;;;;;6176386;23;20029;-49
2022/06/28 09:06:04;;;;;;;9.05;1.77;;;;;;;;;;6166998;23;20040;-45
2022/06/28 09:08:31;;;;;;;10.85;1.77;;;;;;;;;;6169639;23;20023;-46
2022/06/28 09:10:57;;;;;;;9.75;1.98;;;;;;;;;;6163245;23;20019;-45
2022/06/28 09:13:24;;;;;;;10.77;2.25;;;;;;;;;;6175167;23;20104;-45
2022/06/28 09:15:52;;;;;;;7.22;2.08;;;;;;;;;;6174507;23;20024;-45
2022/06/28 09:18:19;;;;;;;16.33;1.92;;;;;;;;;;6175357;23;20040;-48
2022/06/28 09:20:51;;;;;;;7.07;2.03;;;;;;;;;;6169611;23;20025;-45
2022/06/28 09:23:21;;;;;;;7.03;2.03;;;;;;;;;;6150296;23;20044;-44
2022/06/28 09:25:48;;;;;;;12.43;1.90;;;;;;;;;;6172284;23;20099;-46
2022/06/28 09:28:22;;;;;;;6.38;1.90;;;;;;;;;;6170646;23;20044;-45
2022/06/28 09:30:49;;;;;;;8.40;1.70;;;;;;;;;;6175182;23;20044;-46
2022/06/28 09:33:25;;;;;;;6.57;1.75;;;;;;;;;;6169675;23;20096;-44
2022/06/28 09:35:53;;;;;;;4.30;1.60;;;;;;;;;;6173308;23;20335;-45
2022/06/28 09:38:28;;;;;;;7.90;2.05;;;;;;;;;;6173129;23;20377;-50
2022/06/28 09:40:55;;;;;;;5.82;1.67;;;;;;;;;;6177941;23;20071;-46
2022/06/28 09:43:21;;;;;;;9.48;1.92;;;;;;;;;;6160354;23;20032;-44
2022/06/28 09:45:50;;;;;;;9.40;1.77;;;;;;;;;;6174951;23;20081;-46
2022/06/28 09:48:17;;;;;;;6.88;2.45;;;;;;;;;;6168583;23;20044;-47
2022/06/28 09:50:44;;;;;;;8.52;2.03;;;;;;;;;;6178218;23;20021;-44
2022/06/28 09:53:14;;;;;;;6.50;2.17;;;;;;;;;;6167321;23;20064;-46
2022/06/28 09:55:41;;;;;;;12.43;2.20;;;;;;;;;;6166316;23;20028;-47
2022/06/28 09:58:08;;;;;;;4.45;1.92;;;;;;;;;;6171073;23;20024;-47
2022/06/28 10:00:37;;;;;;;8.45;1.65;;;;;;;;;;6163344;23;20021;-46
2022/06/28 10:03:04;;;;;;;4.07;1.67;;;;;;;;;;6145220;23;20024;-46
2022/06/28 10:05:32;;;;;;;8.73;2.10;;;;;;;;;;6168652;23;20021;-47
2022/06/28 10:07:59;;;;;;;3.85;1.48;;;;;;;;;;6173749;23;20013;-48
2022/06/28 10:10:27;;;;;;;6.57;1.30;;;;;;;;;;6137897;23;20337;-46
2022/06/28 10:15:49;;;;;;;9.27;2.73;;;;;;;;;;6171639;23;20059;-47
2022/06/28 10:18:17;;;;;;;5.15;1.35;;;;;;;;;;6172331;23;20017;-48
2022/06/28 10:20:46;;;;;;;6.35;1.85;;;;;;;;;;6157642;23;20024;-45
2022/06/28 10:23:23;;;;;;;6.53;1.70;;;;;;;;;;6178371;23;20020;-46
2022/06/28 10:26:05;;;;;;;9.27;1.95;;;;;;;;;;6169946;23;20028;-46
2022/06/28 10:28:35;;;;;;;6.00;1.73;;;;;;;;;;6175507;23;20024;-46
2022/06/28 10:31:20;;;;;;;6.80;1.58;;;;;;;;;;6170603;23;20013;-46
2022/06/28 10:33:47;;;;;;;5.28;1.50;;;;;;;;;;6168638;23;20095;-46
2022/06/28 10:36:14;;;;;;;10.27;1.60;;;;;;;;;;6172418;23;20013;-48
2022/06/28 10:39:06;;;;;;;6.70;2.03;;;;;;;;;;6150474;23;20017;-46
2022/06/28 10:41:38;;;;;;;8.65;1.27;;;;;;;;;;6170200;23;20017;-47
2022/06/28 10:44:09;;;;;;;6.70;1.52;;;;;;;;;;6174932;23;20017;-48
2022/06/28 10:46:36;;;;;;;4.45;1.15;;;;;;;;;;6163777;23;20092;-47
2022/06/28 10:49:09;;;;;;;8.20;1.42;;;;;;;;;;6176979;23;20017;-46
2022/06/28 10:51:37;;;;;;;4.15;1.38;;;;;;;;;;6159458;23;20024;-46
2022/06/28 10:54:07;;;;;;;8.88;1.50;;;;;;;;;;6176968;23;20013;-45
2022/06/28 10:56:40;;;;;;;4.18;1.35;;;;;;;;;;6170135;23;20017;-46
2022/06/28 10:59:08;;;;;;;4.68;1.52;;;;;;;;;;6175937;23;20040;-47
2022/06/28 11:01:55;;;;;;;15.48;1.52;;;;;;;;;;6161977;23;20399;-48
2022/06/28 11:04:28;;;;;;;3.30;1.15;;;;;;;;;;6172477;23;20025;-46
2022/06/28 11:06:56;;;;;;;5.35;1.05;;;;;;;;;;6173410;23;20158;-47
2022/06/28 11:09:27;;;;;;;14.02;2.00;;;;;;;;;;6168160;23;20053;-46
2022/06/28 11:12:09;;;;;;;5.35;1.40;;;;;;;;;;6169818;23;20017;-46
2022/06/28 11:14:45;;;;;;;6.25;1.75;;;;;;;;;;6171857;23;20044;-50
2022/06/28 11:17:16;;;;;;;5.35;1.73;;;;;;;;;;6175730;23;20009;-47
2022/06/28 11:19:50;;;;;;;5.72;1.65;;;;;;;;;;6165080;23;20377;-45
2022/06/28 11:22:18;;;;;;;11.38;2.30;;;;;;;;;;6153340;23;20076;-45
2022/06/28 11:24:45;;;;;;;5.78;1.90;;;;;;;;;;6155104;23;20608;-45
2022/06/28 11:27:22;;;;;;;5.80;1.70;;;;;;;;;;6168152;23;20021;-45
2022/06/28 11:29:53;;;;;;;10.30;2.55;;;;;;;;;;6167639;23;20029;-45
2022/06/28 11:32:20;;;;;;;9.88;2.28;;;;;;;;;;6146128;23;20216;-46
2022/06/28 11:34:54;;;;;;;3.88;1.45;;;;;;;;;;6170956;23;20086;-46
2022/06/28 11:37:20;;;;;;;3.22;1.35;;;;;;;;;;6157772;23;20089;-47
2022/06/28 11:39:47;;;;;;;8.30;2.00;;;;;;;;;;6180886;23;20020;-46
2022/06/28 11:42:15;;;;;;;4.40;1.38;;;;;;;;;;6164919;23;20024;-46
2022/06/28 11:44:43;;;;;;;6.32;1.48;;;;;;;;;;6139961;23;20017;-46
2022/06/28 11:47:10;;;;;;;8.65;1.50;;;;;;;;;;6170368;23;20071;-45
2022/06/28 11:49:38;;;;;;;4.65;1.63;;;;;;;;;;6157831;23;20013;-45
2022/06/28 11:52:05;;;;;;;7.40;2.00;;;;;;;;;;6137998;23;20021;-45
2022/06/28 11:54:32;;;;;;;8.13;1.70;;;;;;;;;;6133060;23;20022;-47
2022/06/28 11:56:59;;;;;;;5.15;1.27;;;;;;;;;;6142890;23;20031;-50
2022/06/28 11:59:40;;;;;;;8.57;1.80;;;;;;;;;;6136859;23;20043;-45
2022/06/28 12:02:08;;;;;;;5.05;1.85;;;;;;;;;;6142930;23;20400;-46
2022/06/28 12:04:41;;;;;;;8.02;2.60;;;;;;;;;;6139900;23;20025;-48
2022/06/28 12:07:09;;;;;;;7.97;1.83;;;;;;;;;;6125891;23;20033;-46
2022/06/28 12:09:44;;;;;;;6.53;1.40;;;;;;;;;;6140526;23;20021;-47
2022/06/28 12:12:10;;;;;;;4.85;1.50;;;;;;;;;;6125869;23;20076;-46
2022/06/28 12:14:39;;;;;;;3.63;1.58;;;;;;;;;;6140897;23;20096;-46
2022/06/28 12:17:05;;;;;;;4.93;2.10;;;;;;;;;;6131467;23;20021;-45
2022/06/28 12:19:34;;;;;;;9.20;1.73;;;;;;;;;;6129997;23;20018;-49
2022/06/28 12:22:02;;;;;;;9.00;1.80;;;;;;;;;;6146056;23;20014;-46
2022/06/28 12:24:38;;;;;;;6.78;2.75;;;;;;;;;;6134171;23;20017;-45
2022/06/28 12:27:05;;;;;;;12.93;2.38;;;;;;;;;;6137340;23;20077;-46
2022/06/28 12:29:32;;;;;;;4.13;1.25;;;;;;;;;;6140634;23;20530;-46
2022/06/28 12:31:59;;;;;;;7.85;1.40;;;;;;;;;;6131717;23;20048;-47
2022/06/28 12:34:25;;;;;;;7.43;1.20;;;;;;;;;;6144971;23;20025;-45
2022/06/28 12:36:53;;;;;;;5.68;1.75;;;;;;;;;;6134049;23;20017;-45
2022/06/28 12:39:20;;;;;;;7.68;1.80;;;;;;;;;;6145169;23;20033;-47
2022/06/28 12:41:48;;;;;;;9.70;1.65;;;;;;;;;;6130732;23;20458;-45
2022/06/28 12:44:15;;;;;;;4.07;1.10;;;;;;;;;;6141822;23;20018;-47
2022/06/28 12:46:42;;;;;;;7.53;1.58;;;;;;;;;;6136219;23;20018;-45
2022/06/28 12:49:08;;;;;;;6.38;1.92;;;;;;;;;;6142209;23;20017;-46
2022/06/28 12:51:35;;;;;;;4.50;1.40;;;;;;;;;;6119876;23;20034;-46
2022/06/28 12:54:03;;;;;;;4.15;1.67;;;;;;;;;;6161428;23;20384;-45
2022/06/28 12:56:29;;;;;;;10.63;1.65;;;;;;;;;;6141298;23;20055;-48
2022/06/28 12:58:58;;;;;;;7.10;1.60;;;;;;;;;;6172721;23;20017;-46
2022/06/28 13:01:25;;;;;;;8.70;2.33;;;;;;;;;;6168084;23;20017;-48
2022/06/28 13:03:51;;;;;;;5.43;1.63;;;;;;;;;;6169047;23;20076;-49
2022/06/28 13:06:18;;;;;;;5.00;1.73;;;;;;;;;;6165251;23;20331;-47
2022/06/28 13:08:45;;;;;;;6.43;1.48;;;;;;;;;;6169764;23;20087;-47
2022/06/28 13:11:13;;;;;;;7.35;1.60;;;;;;;;;;6171734;23;20017;-47
2022/06/28 13:13:39;;;;;;;7.05;1.40;;;;;;;;;;6171406;23;20414;-49
2022/06/28 13:16:06;;;;;;;5.60;0.93;;;;;;;;;;6144550;23;20021;-48
2022/06/28 13:18:33;;;;;;;3.33;1.10;;;;;;;;;;6165047;23;20017;-45
2022/06/28 13:21:00;;;;;;;4.60;1.40;;;;;;;;;;6179334;23;20024;-49
2022/06/28 13:23:26;;;;;;;6.97;1.60;;;;;;;;;;6165361;23;20049;-45
2022/06/28 13:25:54;;;;;;;6.47;1.77;;;;;;;;;;6169488;23;20017;-47
2022/06/28 13:28:22;;;;;;;8.43;1.48;;;;;;;;;;6176595;23;20024;-45
2022/06/28 13:30:48;;;;;;;11.25;1.55;;;;;;;;;;6164538;23;20017;-46
2022/06/28 13:33:15;;;;;;;10.07;2.08;;;;;;;;;;6173966;23;20079;-46
2022/06/28 13:35:43;;;;;;;8.13;1.52;;;;;;;;;;6172337;23;20059;-46
2022/06/28 13:38:09;;;;;;;6.43;1.05;;;;;;;;;;6169703;23;20017;-45
2022/06/28 13:40:36;;;;;;;6.93;1.15;;;;;;;;;;6172044;23;20077;-47
2022/06/28 13:43:32;;;;;;;6.43;1.38;;;;;;;;;;6172922;23;20019;-46
2022/06/28 13:45:51;;;;;;;5.07;1.38;;;;;;;;;;6172563;23;20096;-47
2022/06/28 13:48:17;;;;;;;7.82;1.42;;;;;;;;;;6165544;23;20719;-45
2022/06/28 13:50:44;;;;;;;7.47;1.48;;;;;;;;;;6168035;23;20021;-47
2022/06/28 13:53:12;;;;;;;6.28;1.80;;;;;;;;;;6163314;23;20017;-46
2022/06/28 13:55:40;;;;;;;5.45;1.80;;;;;;;;;;6168128;23;20104;-49
2022/06/28 13:58:06;;;;;;;5.82;1.42;;;;;;;;;;6171323;23;20048;-46
2022/06/28 14:00:33;;;;;;;13.02;1.88;;;;;;;;;;6171870;23;20021;-47
2022/06/28 14:03:00;;;;;;;5.90;1.30;;;;;;;;;;6177530;23;20632;-46
2022/06/28 14:05:27;;;;;;;4.95;1.23;;;;;;;;;;6168812;23;20016;-47
2022/06/28 14:07:53;;;;;;;8.02;1.90;;;;;;;;;;6171538;23;20013;-46
2022/06/28 14:10:20;;;;;;;5.72;1.35;;;;;;;;;;6170164;23;20131;-44
2022/06/28 14:12:47;;;;;;;8.45;1.65;;;;;;;;;;6176665;23;20019;-50
2022/06/28 14:15:13;;;;;;;5.70;1.55;;;;;;;;;;6174481;23;20298;-45
2022/06/28 14:17:40;;;;;;;4.10;1.25;;;;;;;;;;6148051;23;20026;-47
2022/06/28 14:20:08;;;;;;;6.95;1.40;;;;;;;;;;6172991;23;20020;-46
2022/06/28 14:22:35;;;;;;;6.85;1.90;;;;;;;;;;6165542;23;20017;-46
2022/06/28 14:25:02;;;;;;;8.05;1.38;;;;;;;;;;6177416;23;20019;-47
2022/06/28 14:27:29;;;;;;;7.03;2.58;;;;;;;;;;6172350;23;20032;-45
2022/06/28 14:29:55;;;;;;;7.25;1.65;;;;;;;;;;6167919;23;20013;-46
2022/06/28 14:32:22;;;;;;;10.05;1.95;;;;;;;;;;6168506;23;20080;-45
2022/06/28 14:34:48;;;;;;;5.25;1.80;;;;;;;;;;6176777;23;20021;-45
2022/06/28 14:37:16;;;;;;;5.60;1.73;;;;;;;;;;6166691;23;20336;-46
2022/06/28 14:39:44;;;;;;;6.22;1.35;;;;;;;;;;6168537;23;20025;-47
2022/06/28 14:42:10;;;;;;;6.55;1.75;;;;;;;;;;6172227;23;20017;-50
2022/06/28 14:44:38;;;;;;;8.95;2.15;;;;;;;;;;6164440;23;20024;-46
2022/06/28 14:47:05;;;;;;;9.43;2.10;;;;;;;;;;6171821;23;20031;-50
2022/06/28 14:49:32;;;;;;;6.13;1.88;;;;;;;;;;6169487;23;20017;-45
2022/06/28 14:51:59;;;;;;;5.82;1.80;;;;;;;;;;6174758;23;20384;-48